createdAt,value
2017-12-25T00:00:37.316Z,95324.39
2017-12-25T00:03:05.680Z,95325.86
2017-12-25T00:05:34.028Z,95325.45
2017-12-25T00:08:02.372Z,95334.84
2017-12-25T00:10:30.712Z,95322.66
2017-12-25T00:12:59.054Z,95326.02
2017-12-25T00:15:27.435Z,95326.81
2017-12-25T00:17:55.781Z,95326.72
2017-12-25T00:20:24.133Z,95329.78
2017-12-25T00:22:52.483Z,95328.08
2017-12-25T00:25:20.834Z,95327.67
2017-12-25T00:27:49.232Z,95325.23
2017-12-25T00:30:17.567Z,95330.34
2017-12-25T00:32:45.908Z,95323.27
2017-12-25T00:35:14.248Z,95314.66
2017-12-25T00:37:42.598Z,95318.51
2017-12-25T00:40:10.969Z,95321.93
2017-12-25T00:42:39.311Z,95317.05
2017-12-25T00:45:07.654Z,95319.20
2017-12-25T00:47:36.003Z,95314.24
2017-12-25T00:50:04.343Z,95314.37
2017-12-25T00:52:32.716Z,95306.00
2017-12-25T00:55:01.061Z,95309.18
2017-12-25T00:57:29.394Z,95297.85
2017-12-25T00:59:57.747Z,95302.28
2017-12-25T01:02:26.126Z,95296.11
2017-12-25T01:04:54.495Z,95300.11
2017-12-25T01:07:22.832Z,95298.04
2017-12-25T01:09:51.171Z,95290.40
2017-12-25T01:12:19.512Z,95287.98
2017-12-25T01:14:47.855Z,95281.31
2017-12-25T01:17:16.230Z,95287.19
2017-12-25T01:19:44.592Z,95281.90
2017-12-25T01:22:12.951Z,95281.75
2017-12-25T01:24:41.364Z,95278.61
2017-12-25T01:27:09.702Z,95275.93
2017-12-25T01:29:38.063Z,95283.25
2017-12-25T01:32:06.493Z,95280.59
2017-12-25T01:34:34.826Z,95287.62
2017-12-25T01:37:03.176Z,95278.91
2017-12-25T01:39:31.536Z,95289.74
2017-12-25T01:41:59.895Z,95284.91
2017-12-25T01:44:28.222Z,95278.78
2017-12-25T01:47:06.364Z,95285.78
2017-12-25T01:49:34.703Z,95273.17
2017-12-25T01:52:03.027Z,95279.95
2017-12-25T01:54:41.599Z,95275.20
2017-12-25T01:57:17.330Z,95267.83
2017-12-25T02:00:09.686Z,95275.25
2017-12-25T02:02:37.752Z,95267.80
2017-12-25T02:05:12.135Z,95271.35
2017-12-25T02:07:51.852Z,95274.06
2017-12-25T02:10:19.905Z,95270.23
2017-12-25T02:12:48.009Z,95269.96
2017-12-25T02:15:16.101Z,95264.55
2017-12-25T02:17:44.454Z,95258.92
2017-12-25T02:20:12.825Z,95268.24
2017-12-25T02:22:41.198Z,95265.19
2017-12-25T02:25:09.568Z,95263.80
2017-12-25T02:27:37.918Z,95265.38
2017-12-25T02:30:06.254Z,95262.09
2017-12-25T02:32:34.599Z,95269.27
2017-12-25T02:35:02.951Z,95265.84
2017-12-25T02:37:31.300Z,95257.40
2017-12-25T02:39:59.666Z,95250.33
2017-12-25T02:42:28.008Z,95243.49
2017-12-25T02:44:56.337Z,95260.63
2017-12-25T02:47:24.678Z,95250.67
2017-12-25T02:49:53.037Z,95246.25
2017-12-25T02:52:21.476Z,95247.38
2017-12-25T02:54:49.823Z,95244.98
2017-12-25T02:57:18.202Z,95251.75
2017-12-25T02:59:46.535Z,95248.26
2017-12-25T03:02:14.879Z,95248.38
2017-12-25T03:04:43.263Z,95251.62
2017-12-25T03:07:11.602Z,95245.11
2017-12-25T03:09:39.939Z,95251.19
2017-12-25T03:12:08.286Z,95255.63
2017-12-25T03:14:36.621Z,95246.30
2017-12-25T03:17:05.011Z,95246.18
2017-12-25T03:19:33.398Z,95245.91
2017-12-25T03:22:01.742Z,95247.36
2017-12-25T03:24:30.084Z,95248.38
2017-12-25T03:26:58.420Z,95251.89
2017-12-25T03:29:26.779Z,95240.95
2017-12-25T03:31:55.124Z,95242.48
2017-12-25T03:34:23.466Z,95241.05
2017-12-25T03:36:51.811Z,95253.44
2017-12-25T03:39:23.315Z,95230.42
2017-12-25T03:41:52.207Z,95234.80
2017-12-25T03:44:20.545Z,95225.05
2017-12-25T03:46:48.882Z,95230.27
2017-12-25T03:49:17.228Z,95220.93
2017-12-25T03:51:45.846Z,95225.79
2017-12-25T03:54:14.217Z,95222.84
2017-12-25T03:56:42.556Z,95224.09
2017-12-25T03:59:10.883Z,95220.84
2017-12-25T04:01:39.218Z,95220.89
2017-12-25T04:04:07.701Z,95222.92
2017-12-25T04:06:36.080Z,95214.11
2017-12-25T04:09:04.508Z,95220.88
2017-12-25T04:11:33.754Z,95210.05
2017-12-25T04:14:02.303Z,95206.64
2017-12-25T04:16:30.640Z,95200.90
2017-12-25T04:18:58.964Z,95202.88
2017-12-25T04:21:27.329Z,95196.34
2017-12-25T04:23:55.726Z,95195.50
2017-12-25T04:26:24.084Z,95197.13
2017-12-25T04:28:52.524Z,95199.60
2017-12-25T04:31:20.943Z,95200.59
2017-12-25T04:33:49.295Z,95194.30
2017-12-25T04:36:17.704Z,95187.41
2017-12-25T04:38:46.067Z,95192.42
2017-12-25T04:41:14.656Z,95191.98
2017-12-25T04:43:42.995Z,95190.45
2017-12-25T04:46:11.371Z,95180.97
2017-12-25T04:48:39.723Z,95183.16
2017-12-25T04:51:08.067Z,95189.33
2017-12-25T04:53:36.396Z,95177.34
2017-12-25T04:56:04.737Z,95174.30
2017-12-25T04:58:33.068Z,95183.05
2017-12-25T05:01:01.414Z,95175.87
2017-12-25T05:03:29.747Z,95185.25
2017-12-25T05:05:58.082Z,95175.14
2017-12-25T05:08:26.467Z,95183.99
2017-12-25T05:10:54.796Z,95180.22
2017-12-25T05:13:23.136Z,95180.53
2017-12-25T05:15:51.476Z,95173.22
2017-12-25T05:18:19.803Z,95172.73
2017-12-25T05:20:48.166Z,95175.38
2017-12-25T05:23:16.535Z,95178.78
2017-12-25T05:25:44.874Z,95176.15
2017-12-25T05:28:13.205Z,95170.79
2017-12-25T05:30:41.535Z,95170.72
2017-12-25T05:33:09.903Z,95170.39
2017-12-25T05:35:38.250Z,95174.03
2017-12-25T05:38:06.600Z,95165.17
2017-12-25T05:40:34.936Z,95164.82
2017-12-25T05:43:03.281Z,95161.87
2017-12-25T05:45:31.690Z,95161.48
2017-12-25T05:48:00.022Z,95153.13
2017-12-25T05:50:28.350Z,95149.11
2017-12-25T05:52:56.703Z,95148.80
2017-12-25T05:55:25.056Z,95149.66
2017-12-25T05:57:53.412Z,95153.53
2017-12-25T06:00:21.755Z,95151.23
2017-12-25T06:02:50.088Z,95149.56
2017-12-25T06:05:18.436Z,95144.22
2017-12-25T06:07:46.775Z,95144.19
2017-12-25T06:10:15.146Z,95131.34
2017-12-25T06:12:43.488Z,95134.09
2017-12-25T06:15:11.834Z,95133.16
2017-12-25T06:17:40.168Z,95132.42
2017-12-25T06:20:08.513Z,95121.12
2017-12-25T06:22:36.922Z,95124.67
2017-12-25T06:25:05.271Z,95122.22
2017-12-25T06:27:33.631Z,95118.39
2017-12-25T06:30:01.968Z,95113.48
2017-12-25T06:32:30.307Z,95108.88
2017-12-25T06:34:58.711Z,95106.72
2017-12-25T06:37:27.046Z,95104.22
2017-12-25T06:39:55.409Z,95100.04
2017-12-25T06:42:23.744Z,95096.88
2017-12-25T06:44:52.124Z,95094.70
2017-12-25T06:47:20.513Z,95094.66
2017-12-25T06:49:48.856Z,95087.22
2017-12-25T06:52:17.200Z,95083.13
2017-12-25T06:54:45.541Z,95084.91
2017-12-25T06:57:13.872Z,95088.97
2017-12-25T06:59:42.229Z,95088.53
2017-12-25T07:02:10.582Z,95090.92
2017-12-25T07:04:38.942Z,95092.86
2017-12-25T07:07:07.275Z,95087.42
2017-12-25T07:09:35.620Z,95082.84
2017-12-25T07:12:03.953Z,95091.16
2017-12-25T07:14:32.285Z,95089.44
2017-12-25T07:17:00.697Z,95097.91
2017-12-25T07:19:29.036Z,95092.86
2017-12-25T07:21:57.400Z,95088.17
2017-12-25T07:24:25.859Z,95085.51
2017-12-25T07:26:54.207Z,95094.34
2017-12-25T07:29:22.545Z,95080.84
2017-12-25T07:31:50.889Z,95086.33
2017-12-25T07:34:19.236Z,95083.89
2017-12-25T07:36:47.572Z,95078.01
2017-12-25T07:39:15.992Z,95077.41
2017-12-25T07:41:44.352Z,95085.92
2017-12-25T07:44:12.695Z,95072.55
2017-12-25T07:46:41.055Z,95078.79
2017-12-25T07:49:09.375Z,95078.11
2017-12-25T07:51:37.757Z,95071.51
2017-12-25T07:54:06.096Z,95072.23
2017-12-25T07:56:34.429Z,95077.67
2017-12-25T07:59:02.767Z,95074.27
2017-12-25T08:01:31.171Z,95082.30
2017-12-25T08:03:59.515Z,95079.41
2017-12-25T08:06:27.885Z,95072.35
2017-12-25T08:08:56.251Z,95080.89
2017-12-25T08:11:24.721Z,95079.73
2017-12-25T08:13:53.110Z,95086.28
2017-12-25T08:16:21.440Z,95086.22
2017-12-25T08:18:49.775Z,95082.84
2017-12-25T08:21:18.107Z,95083.13
2017-12-25T08:23:46.444Z,95084.27
2017-12-25T08:26:14.843Z,95077.98
2017-12-25T08:28:43.187Z,95085.83
2017-12-25T08:31:11.535Z,95079.06
2017-12-25T08:33:39.868Z,95089.14
2017-12-25T08:36:08.252Z,95084.91
2017-12-25T08:38:36.662Z,95084.91
2017-12-25T08:41:05.005Z,95080.22
2017-12-25T08:43:33.341Z,95084.30
2017-12-25T08:46:01.687Z,95080.95
2017-12-25T08:48:30.024Z,95076.57
2017-12-25T08:50:58.392Z,95076.91
2017-12-25T08:53:26.733Z,95073.30
2017-12-25T08:55:55.071Z,95071.95
2017-12-25T08:58:23.425Z,95075.19
2017-12-25T09:00:51.782Z,95077.66
2017-12-25T09:03:20.152Z,95071.27
2017-12-25T09:05:48.512Z,95071.52
2017-12-25T09:08:16.861Z,95075.41
2017-12-25T09:10:45.202Z,95070.84
2017-12-25T09:13:13.582Z,95072.94
2017-12-25T09:15:41.933Z,95072.41
2017-12-25T09:18:10.270Z,95063.08
2017-12-25T09:20:38.610Z,95069.06
2017-12-25T09:23:06.972Z,95067.81
2017-12-25T09:25:35.318Z,95063.08
2017-12-25T09:28:03.720Z,95066.20
2017-12-25T09:30:32.095Z,95067.87
2017-12-25T09:33:00.576Z,95071.35
2017-12-25T09:35:28.925Z,95072.33
2017-12-25T09:37:57.275Z,95062.14
2017-12-25T09:40:25.695Z,95076.38
2017-12-25T09:42:54.053Z,95078.29
2017-12-25T09:45:22.388Z,95077.56
2017-12-25T09:47:50.729Z,95072.98
2017-12-25T09:50:19.057Z,95075.45
2017-12-25T09:52:47.430Z,95070.72
2017-12-25T09:55:15.776Z,95075.78
2017-12-25T09:57:44.119Z,95073.21
2017-12-25T10:00:12.521Z,95067.34
2017-12-25T10:02:40.863Z,95065.02
2017-12-25T10:05:09.228Z,95065.62
2017-12-25T10:07:37.602Z,95060.23
2017-12-25T10:10:06.085Z,95063.10
2017-12-25T10:12:34.446Z,95066.20
2017-12-25T10:15:02.789Z,95058.58
2017-12-25T10:17:31.174Z,95057.78
2017-12-25T10:19:59.515Z,95059.19
2017-12-25T10:22:27.924Z,95053.55
2017-12-25T10:24:56.269Z,95049.06
2017-12-25T10:27:24.601Z,95041.91
2017-12-25T10:29:52.988Z,95043.41
2017-12-25T10:32:21.333Z,95034.50
2017-12-25T10:34:49.668Z,95028.17
2017-12-25T10:37:18.009Z,95025.81
2017-12-25T10:39:46.344Z,95017.09
2017-12-25T10:42:14.719Z,95017.23
2017-12-25T10:44:43.059Z,95016.83
2017-12-25T10:47:11.397Z,95012.95
2017-12-25T10:49:39.780Z,95008.50
2017-12-25T10:52:08.115Z,95010.92
2017-12-25T10:54:36.474Z,95003.84
2017-12-25T10:57:04.802Z,94998.59
2017-12-25T10:59:33.158Z,94998.17
2017-12-25T11:02:01.532Z,94993.69
2017-12-25T11:04:29.872Z,94987.23
2017-12-25T11:06:58.207Z,94984.73
2017-12-25T11:09:26.567Z,94986.71
2017-12-25T11:11:54.926Z,94987.23
2017-12-25T11:14:23.306Z,94981.98
2017-12-25T11:16:51.769Z,94985.95
2017-12-25T11:19:20.110Z,94979.81
2017-12-25T11:21:48.467Z,94976.27
2017-12-25T11:24:16.827Z,94970.77
2017-12-25T11:26:45.342Z,94972.58
2017-12-25T11:29:13.731Z,94968.63
2017-12-25T11:31:42.093Z,94957.13
2017-12-25T11:34:10.447Z,94961.71
2017-12-25T11:36:38.810Z,94952.89
2017-12-25T11:39:07.169Z,94943.77
2017-12-25T11:41:35.550Z,94940.19
2017-12-25T11:44:03.913Z,94932.00
2017-12-25T11:46:32.252Z,94922.33
2017-12-25T11:49:00.613Z,94920.36
2017-12-25T11:51:28.967Z,94915.14
2017-12-25T11:53:57.336Z,94904.27
2017-12-25T11:58:54.065Z,94900.72
2017-12-25T12:01:22.398Z,94905.30
2017-12-25T12:03:50.759Z,94895.79
2017-12-25T12:06:19.127Z,94879.30
2017-12-25T12:08:47.482Z,94885.21
2017-12-25T12:11:15.837Z,94883.33
2017-12-25T12:13:44.187Z,94878.03
2017-12-25T12:16:12.536Z,94877.39
2017-12-25T12:18:40.903Z,94869.45
2017-12-25T12:21:09.260Z,94868.40
2017-12-25T12:23:37.604Z,94858.50
2017-12-25T12:26:06.186Z,94857.55
2017-12-25T12:28:34.856Z,94848.23
2017-12-25T12:31:03.301Z,94841.73
2017-12-25T12:33:32.876Z,94839.30
2017-12-25T12:36:01.305Z,94828.66
2017-12-25T12:38:31.106Z,94836.50
2017-12-25T12:40:59.566Z,94826.22
2017-12-25T12:43:28.058Z,94814.25
2017-12-25T12:45:56.494Z,94809.09
2017-12-25T12:48:24.835Z,94811.00
2017-12-25T12:50:53.209Z,94801.52
2017-12-25T12:53:21.547Z,94796.47
2017-12-25T12:55:49.889Z,94788.77
2017-12-25T12:58:18.226Z,94778.88
2017-12-25T13:00:46.574Z,94785.13
2017-12-25T13:03:14.960Z,94781.09
2017-12-25T13:05:43.305Z,94776.25
2017-12-25T13:08:11.702Z,94773.63
2017-12-25T13:10:40.063Z,94756.75
2017-12-25T13:13:08.443Z,94741.13
2017-12-25T13:15:36.823Z,94740.21
2017-12-25T13:18:05.166Z,94737.67
2017-12-25T13:20:33.512Z,94733.67
2017-12-25T13:23:01.866Z,94728.03
2017-12-25T13:25:30.216Z,94728.86
2017-12-25T13:27:58.584Z,94726.72
2017-12-25T13:30:26.942Z,94731.40
2017-12-25T13:32:55.286Z,94715.97
2017-12-25T13:35:23.627Z,94712.36
2017-12-25T13:37:51.968Z,94713.52
2017-12-25T13:40:20.391Z,94707.25
2017-12-25T13:42:48.729Z,94698.67
2017-12-25T13:45:17.089Z,94709.29
2017-12-25T13:47:45.426Z,94706.20
2017-12-25T13:50:13.770Z,94701.09
2017-12-25T13:52:42.148Z,94696.21
2017-12-25T13:55:10.495Z,94690.77
2017-12-25T13:57:38.851Z,94693.88
2017-12-25T14:00:07.192Z,94682.47
2017-12-25T14:02:35.540Z,94682.45
2017-12-25T14:05:03.938Z,94685.30
2017-12-25T14:07:32.323Z,94678.59
2017-12-25T14:10:00.664Z,94676.85
2017-12-25T14:12:29.006Z,94671.52
2017-12-25T14:14:57.342Z,94670.48
2017-12-25T14:17:25.711Z,94671.30
2017-12-25T14:19:54.075Z,94665.19
2017-12-25T14:22:22.407Z,94668.19
2017-12-25T14:24:50.756Z,94666.30
2017-12-25T14:27:19.103Z,94658.19
2017-12-25T14:29:47.474Z,94647.14
2017-12-25T14:32:15.825Z,94653.55
2017-12-25T14:34:44.213Z,94655.14
2017-12-25T14:37:12.554Z,94652.30
2017-12-25T14:39:40.927Z,94663.02
2017-12-25T14:42:09.322Z,94658.83
2017-12-25T14:47:12.152Z,94643.97
2017-12-25T14:49:40.493Z,94639.59
2017-12-25T14:52:08.831Z,94641.03
2017-12-25T14:54:37.165Z,94645.80
2017-12-25T14:57:05.514Z,94638.48
2017-12-25T14:59:33.898Z,94636.45
2017-12-25T15:02:02.236Z,94633.88
2017-12-25T15:04:30.581Z,94631.66
2017-12-25T15:06:58.931Z,94638.83
2017-12-25T15:09:27.272Z,94639.59
2017-12-25T15:11:55.671Z,94632.25
2017-12-25T15:14:24.003Z,94621.33
2017-12-25T15:16:52.381Z,94620.36
2017-12-25T15:19:20.723Z,94619.10
2017-12-25T15:21:49.066Z,94624.06
2017-12-25T15:24:17.413Z,94624.84
2017-12-25T15:26:45.753Z,94622.22
2017-12-25T15:29:14.120Z,94615.78
2017-12-25T15:31:42.466Z,94615.22
2017-12-25T15:34:10.839Z,94612.14
2017-12-25T15:36:39.195Z,94619.94
2017-12-25T15:39:07.540Z,94612.73
2017-12-25T15:41:35.868Z,94611.22
2017-12-25T15:44:04.203Z,94610.95
2017-12-25T15:46:32.601Z,94602.72
2017-12-25T15:49:00.926Z,94597.16
2017-12-25T15:51:29.276Z,94602.41
2017-12-25T15:53:57.616Z,94594.66
2017-12-25T15:56:25.986Z,94589.20
2017-12-25T15:58:54.324Z,94587.50
2017-12-25T16:01:22.668Z,94583.36
2017-12-25T16:03:50.998Z,94578.89
2017-12-25T16:06:20.248Z,94572.08
2017-12-25T16:08:48.625Z,94567.44
2017-12-25T16:11:16.955Z,94563.30
2017-12-25T16:13:45.291Z,94562.16
2017-12-25T16:16:13.635Z,94559.48
2017-12-25T16:18:41.975Z,94552.52
2017-12-25T16:21:10.348Z,94549.12
2017-12-25T16:23:38.689Z,94542.68
2017-12-25T16:26:07.026Z,94546.28
2017-12-25T16:28:35.404Z,94544.83
2017-12-25T16:31:03.746Z,94538.30
2017-12-25T16:33:32.088Z,94538.04
2017-12-25T16:36:00.464Z,94539.60
2017-12-25T16:38:28.796Z,94541.22
2017-12-25T16:40:57.125Z,94535.53
2017-12-25T16:43:25.473Z,94528.45
2017-12-25T16:45:53.813Z,94537.00
2017-12-25T16:48:22.172Z,94531.55
2017-12-25T16:50:50.507Z,94537.95
2017-12-25T16:53:18.845Z,94539.48
2017-12-25T16:55:47.185Z,94540.60
2017-12-25T16:58:15.531Z,94536.34
2017-12-25T17:00:43.906Z,94537.05
2017-12-25T17:03:12.236Z,94534.03
2017-12-25T17:05:40.570Z,94525.80
2017-12-25T17:08:08.899Z,94528.75
2017-12-25T17:10:37.239Z,94524.17
2017-12-25T17:13:05.602Z,94517.39
2017-12-25T17:15:33.954Z,94508.64
2017-12-25T17:18:02.290Z,94503.10
2017-12-25T17:20:30.624Z,94502.88
2017-12-25T17:22:58.997Z,94497.14
2017-12-25T17:25:27.372Z,94489.94
2017-12-25T17:27:55.722Z,94490.14
2017-12-25T17:30:24.078Z,94488.99
2017-12-25T17:32:52.416Z,94476.53
2017-12-25T17:35:20.769Z,94471.09
2017-12-25T17:37:49.100Z,94475.55
2017-12-25T17:40:17.439Z,94460.88
2017-12-25T17:42:45.777Z,94456.34
2017-12-25T17:45:14.170Z,94454.66
2017-12-25T17:47:42.573Z,94449.11
2017-12-25T17:50:10.928Z,94444.44
2017-12-25T17:52:39.273Z,94432.09
2017-12-25T17:55:07.612Z,94434.12
2017-12-25T17:57:36.010Z,94428.02
2017-12-25T18:00:04.340Z,94429.64
2017-12-25T18:02:32.695Z,94438.08
2017-12-25T18:05:01.038Z,94427.45
2017-12-25T18:07:29.370Z,94430.70
2017-12-25T18:09:57.726Z,94415.34
2017-12-25T18:12:26.076Z,94407.17
2017-12-25T18:14:54.412Z,94402.31
2017-12-25T18:17:22.764Z,94405.09
2017-12-25T18:19:51.106Z,94393.61
2017-12-25T18:22:19.544Z,94392.67
2017-12-25T18:24:48.791Z,94383.27
2017-12-25T18:27:17.143Z,94392.34
2017-12-25T18:29:45.520Z,94389.69
2017-12-25T18:32:13.842Z,94385.16
2017-12-25T18:34:42.177Z,94380.88
2017-12-25T18:37:10.535Z,94371.69
2017-12-25T18:39:38.883Z,94371.77
2017-12-25T18:42:07.232Z,94365.72
2017-12-25T18:44:35.636Z,94365.73
2017-12-25T18:47:03.977Z,94363.33
2017-12-25T18:49:32.323Z,94353.41
2017-12-25T18:52:00.664Z,94348.59
2017-12-25T18:54:29.011Z,94342.39
2017-12-25T18:56:57.392Z,94348.71
2017-12-25T18:59:25.791Z,94341.95
2017-12-25T19:01:54.178Z,94339.13
2017-12-25T19:04:22.519Z,94338.06
2017-12-25T19:06:50.878Z,94331.49
2017-12-25T19:09:19.237Z,94330.64
2017-12-25T19:11:48.535Z,94322.28
2017-12-25T19:14:16.895Z,94329.92
2017-12-25T19:16:45.235Z,94325.30
2017-12-25T19:19:13.581Z,94318.41
2017-12-25T19:21:41.929Z,94325.61
2017-12-25T19:24:10.309Z,94323.04
2017-12-25T19:26:38.675Z,94308.94
2017-12-25T19:29:07.031Z,94310.00
2017-12-25T19:31:35.386Z,94305.95
2017-12-25T19:34:03.726Z,94303.86
2017-12-25T19:36:32.109Z,94295.89
2017-12-25T19:39:00.441Z,94296.52
2017-12-25T19:41:28.818Z,94297.73
2017-12-25T19:43:57.158Z,94289.50
2017-12-25T19:46:25.511Z,94288.60
2017-12-25T19:48:53.856Z,94280.33
2017-12-25T19:51:22.204Z,94283.43
2017-12-25T19:53:50.567Z,94275.58
2017-12-25T19:56:18.953Z,94267.35
2017-12-25T19:58:47.296Z,94270.94
2017-12-25T20:01:15.654Z,94266.89
2017-12-25T20:03:43.988Z,94265.34
2017-12-25T20:06:12.416Z,94257.22
2017-12-25T20:08:40.766Z,94245.65
2017-12-25T20:11:09.170Z,94235.80
2017-12-25T20:13:37.523Z,94226.34
2017-12-25T20:16:05.861Z,94213.56
2017-12-25T20:18:34.213Z,94227.30
2017-12-25T20:21:02.568Z,94223.67
2017-12-25T20:23:30.945Z,94218.83
2017-12-25T20:25:59.301Z,94212.59
2017-12-25T20:28:27.671Z,94211.92
2017-12-25T20:30:56.021Z,94198.53
2017-12-25T20:33:24.358Z,94209.94
2017-12-25T20:35:52.752Z,94211.76
2017-12-25T20:38:21.086Z,94211.23
2017-12-25T20:40:49.485Z,94198.50
2017-12-25T20:43:17.843Z,94196.98
2017-12-25T20:45:46.279Z,94211.17
2017-12-25T20:48:14.625Z,94202.31
2017-12-25T20:50:42.985Z,94203.28
2017-12-25T20:53:11.327Z,94200.50
2017-12-25T20:55:39.691Z,94189.25
2017-12-25T20:58:08.053Z,94190.56
2017-12-25T21:00:36.394Z,94189.94
2017-12-25T21:03:04.786Z,94177.08
2017-12-25T21:05:33.173Z,94176.72
2017-12-25T21:08:01.519Z,94171.98
2017-12-25T21:10:30.718Z,94167.92
2017-12-25T21:12:59.062Z,94168.64
2017-12-25T21:15:27.403Z,94164.48
2017-12-25T21:17:55.743Z,94166.51
2017-12-25T21:20:24.091Z,94149.45
2017-12-25T21:22:52.445Z,94154.17
2017-12-25T21:25:20.803Z,94146.08
2017-12-25T21:27:49.140Z,94134.63
2017-12-25T21:30:17.488Z,94115.97
2017-12-25T21:32:45.842Z,94118.84
2017-12-25T21:35:14.221Z,94113.84
2017-12-25T21:37:42.574Z,94116.25
2017-12-25T21:40:10.939Z,94115.41
2017-12-25T21:42:39.290Z,94117.61
2017-12-25T21:45:07.722Z,94112.84
2017-12-25T21:47:36.059Z,94111.84
2017-12-25T21:50:04.431Z,94122.03
2017-12-25T21:52:32.808Z,94112.13
2017-12-25T21:55:01.166Z,94122.88
2017-12-25T21:57:29.507Z,94108.77
2017-12-25T21:59:57.868Z,94110.02
2017-12-25T22:02:26.309Z,94107.77
2017-12-25T22:04:54.674Z,94092.22
2017-12-25T22:07:23.049Z,94104.36
2017-12-25T22:09:51.398Z,94100.41
2017-12-25T22:12:19.746Z,94100.54
2017-12-25T22:14:48.117Z,94094.77
2017-12-25T22:17:16.483Z,94087.16
2017-12-25T22:19:44.831Z,94099.98
2017-12-25T22:22:13.184Z,94097.16
2017-12-25T22:24:41.579Z,94093.59
2017-12-25T22:27:09.950Z,94078.09
2017-12-25T22:29:38.313Z,94075.32
2017-12-25T22:32:06.787Z,94078.90
2017-12-25T22:34:35.212Z,94069.98
2017-12-25T22:37:03.573Z,94062.72
2017-12-25T22:39:31.942Z,94062.42
2017-12-25T22:42:00.280Z,94066.06
2017-12-25T22:44:28.624Z,94045.98
2017-12-25T22:46:56.985Z,94057.48
2017-12-25T22:49:25.340Z,94046.69
2017-12-25T22:51:53.684Z,94040.83
2017-12-25T22:54:22.029Z,94069.54
2017-12-25T22:56:50.466Z,94055.51
2017-12-25T22:59:18.844Z,94060.53
2017-12-25T23:07:56.862Z,94039.44
2017-12-25T23:10:25.220Z,94051.91
2017-12-25T23:12:53.579Z,94046.13
2017-12-25T23:15:21.935Z,94032.65
2017-12-25T23:17:50.299Z,94033.00
2017-12-25T23:20:18.642Z,94027.43
2017-12-25T23:22:47.072Z,94018.41
2017-12-25T23:25:15.469Z,94013.13
2017-12-25T23:27:43.843Z,94015.59
2017-12-25T23:30:12.204Z,94014.50
2017-12-25T23:32:40.555Z,94014.05
2017-12-25T23:38:09.723Z,94002.56
2017-12-25T23:40:38.102Z,94004.36
2017-12-25T23:43:06.448Z,93995.51
2017-12-25T23:45:34.834Z,94010.72
2017-12-25T23:48:03.230Z,93995.19
2017-12-25T23:50:31.585Z,93989.13
2017-12-25T23:52:59.953Z,93993.80
2017-12-25T23:55:28.319Z,93981.55
2017-12-25T23:57:56.732Z,93977.78
